sensor_id;sensor_type;location;lat;lon;timestamp;temperature;humidity
16655;DHT22;8441;51.344;7.022;2023-03-30T00:00:13;12.60;99.90
16655;DHT22;8441;51.344;7.022;2023-03-30T00:02:45;12.60;99.90
16655;DHT22;8441;51.344;7.022;2023-03-30T00:05:14;12.50;99.90
16655;DHT22;8441;51.344;7.022;2023-03-30T00:07:43;12.50;99.90
16655;DHT22;8441;51.344;7.022;2023-03-30T00:10:12;12.50;99.90
16655;DHT22;8441;51.344;7.022;2023-03-30T00:12:40;12.50;99.90
16655;DHT22;8441;51.344;7.022;2023-03-30T00:15:09;12.60;99.90
16655;DHT22;8441;51.344;7.022;2023-03-30T00:17:37;12.60;99.90
16655;DHT22;8441;51.344;7.022;2023-03-30T00:20:05;12.60;99.90
16655;DHT22;8441;51.344;7.022;2023-03-30T00:22:36;12.70;99.90
16655;DHT22;8441;51.344;7.022;2023-03-30T00:25:06;12.70;99.90
16655;DHT22;8441;51.344;7.022;2023-03-30T00:27:35;12.80;99.90
16655;DHT22;8441;51.344;7.022;2023-03-30T00:30:03;13.00;99.90
16655;DHT22;8441;51.344;7.022;2023-03-30T00:32:30;13.00;99.90
16655;DHT22;8441;51.344;7.022;2023-03-30T00:34:59;13.00;99.90
16655;DHT22;8441;51.344;7.022;2023-03-30T00:37:27;13.10;99.90
16655;DHT22;8441;51.344;7.022;2023-03-30T00:39:54;13.00;99.90
16655;DHT22;8441;51.344;7.022;2023-03-30T00:42:23;13.00;99.90
16655;DHT22;8441;51.344;7.022;2023-03-30T00:45:12;13.00;99.90
16655;DHT22;8441;51.344;7.022;2023-03-30T00:47:44;13.00;99.90
16655;DHT22;8441;51.344;7.022;2023-03-30T00:50:13;12.90;99.90
16655;DHT22;8441;51.344;7.022;2023-03-30T00:52:42;12.90;99.90
16655;DHT22;8441;51.344;7.022;2023-03-30T00:55:11;12.90;99.90
16655;DHT22;8441;51.344;7.022;2023-03-30T00:57:41;12.90;99.90
16655;DHT22;8441;51.344;7.022;2023-03-30T01:00:10;12.90;99.90
16655;DHT22;8441;51.344;7.022;2023-03-30T01:02:42;12.80;99.90
16655;DHT22;8441;51.344;7.022;2023-03-30T01:05:11;12.90;99.90
16655;DHT22;8441;51.344;7.022;2023-03-30T01:07:40;12.90;99.90
16655;DHT22;8441;51.344;7.022;2023-03-30T01:10:09;12.90;99.90
16655;DHT22;8441;51.344;7.022;2023-03-30T01:12:37;12.90;99.90
16655;DHT22;8441;51.344;7.022;2023-03-30T01:15:07;13.00;99.90
16655;DHT22;8441;51.344;7.022;2023-03-30T01:17:53;13.00;99.90
16655;DHT22;8441;51.344;7.022;2023-03-30T01:26:54;13.30;99.90
16655;DHT22;8441;51.344;7.022;2023-03-30T01:29:37;13.40;99.90
16655;DHT22;8441;51.344;7.022;2023-03-30T01:32:50;13.40;99.90
16655;DHT22;8441;51.344;7.022;2023-03-30T01:41:47;13.40;99.90
16655;DHT22;8441;51.344;7.022;2023-03-30T01:44:25;13.40;99.90
16655;DHT22;8441;51.344;7.022;2023-03-30T01:46:58;13.40;99.90
16655;DHT22;8441;51.344;7.022;2023-03-30T01:49:28;13.40;99.90
16655;DHT22;8441;51.344;7.022;2023-03-30T01:52:01;13.40;99.90
16655;DHT22;8441;51.344;7.022;2023-03-30T01:54:35;13.40;99.90
16655;DHT22;8441;51.344;7.022;2023-03-30T01:57:08;13.40;99.90
16655;DHT22;8441;51.344;7.022;2023-03-30T01:59:39;13.40;99.90
16655;DHT22;8441;51.344;7.022;2023-03-30T02:02:10;13.50;99.90
16655;DHT22;8441;51.344;7.022;2023-03-30T02:04:41;13.50;99.90
16655;DHT22;8441;51.344;7.022;2023-03-30T02:07:13;13.50;99.90
16655;DHT22;8441;51.344;7.022;2023-03-30T02:09:43;13.50;99.90
16655;DHT22;8441;51.344;7.022;2023-03-30T02:12:13;13.50;99.90
16655;DHT22;8441;51.344;7.022;2023-03-30T02:14:41;13.60;99.90
16655;DHT22;8441;51.344;7.022;2023-03-30T02:17:12;13.60;99.90
16655;DHT22;8441;51.344;7.022;2023-03-30T02:19:43;13.60;99.90
16655;DHT22;8441;51.344;7.022;2023-03-30T02:22:11;13.60;99.90
16655;DHT22;8441;51.344;7.022;2023-03-30T02:24:40;13.60;99.90
16655;DHT22;8441;51.344;7.022;2023-03-30T02:27:08;13.60;99.90
16655;DHT22;8441;51.344;7.022;2023-03-30T02:29:41;13.50;99.90
16655;DHT22;8441;51.344;7.022;2023-03-30T02:32:15;13.60;99.90
16655;DHT22;8441;51.344;7.022;2023-03-30T02:35:02;13.60;99.90
16655;DHT22;8441;51.344;7.022;2023-03-30T02:40:31;13.50;99.90
16655;DHT22;8441;51.344;7.022;2023-03-30T02:43:25;13.40;99.90
16655;DHT22;8441;51.344;7.022;2023-03-30T02:46:12;13.40;99.90
16655;DHT22;8441;51.344;7.022;2023-03-30T02:48:48;13.30;99.90
16655;DHT22;8441;51.344;7.022;2023-03-30T02:51:32;13.30;99.90
16655;DHT22;8441;51.344;7.022;2023-03-30T02:54:09;13.20;99.90
16655;DHT22;8441;51.344;7.022;2023-03-30T02:56:44;13.30;99.90
16655;DHT22;8441;51.344;7.022;2023-03-30T02:59:17;13.20;99.90
16655;DHT22;8441;51.344;7.022;2023-03-30T03:01:49;13.20;99.90
16655;DHT22;8441;51.344;7.022;2023-03-30T03:04:20;13.30;99.90
16655;DHT22;8441;51.344;7.022;2023-03-30T03:06:48;13.20;99.90
16655;DHT22;8441;51.344;7.022;2023-03-30T03:09:18;13.30;99.90
16655;DHT22;8441;51.344;7.022;2023-03-30T03:11:45;13.30;99.90
16655;DHT22;8441;51.344;7.022;2023-03-30T03:14:12;13.30;99.90
16655;DHT22;8441;51.344;7.022;2023-03-30T03:16:39;13.30;99.90
16655;DHT22;8441;51.344;7.022;2023-03-30T03:19:08;13.40;99.90
16655;DHT22;8441;51.344;7.022;2023-03-30T03:21:36;13.30;99.90
16655;DHT22;8441;51.344;7.022;2023-03-30T03:24:03;13.40;99.90
16655;DHT22;8441;51.344;7.022;2023-03-30T03:26:31;13.40;99.90
16655;DHT22;8441;51.344;7.022;2023-03-30T03:28:58;13.40;99.90
16655;DHT22;8441;51.344;7.022;2023-03-30T03:31:25;13.40;99.90
16655;DHT22;8441;51.344;7.022;2023-03-30T03:33:53;13.40;99.90
16655;DHT22;8441;51.344;7.022;2023-03-30T03:36:21;13.30;99.90
16655;DHT22;8441;51.344;7.022;2023-03-30T03:38:48;13.30;99.90
16655;DHT22;8441;51.344;7.022;2023-03-30T03:41:16;13.30;99.90
16655;DHT22;8441;51.344;7.022;2023-03-30T03:43:44;13.30;99.90
16655;DHT22;8441;51.344;7.022;2023-03-30T03:46:11;13.30;99.90
16655;DHT22;8441;51.344;7.022;2023-03-30T03:48:39;13.40;99.90
16655;DHT22;8441;51.344;7.022;2023-03-30T03:51:06;13.40;99.90
16655;DHT22;8441;51.344;7.022;2023-03-30T03:53:35;13.40;99.90
16655;DHT22;8441;51.344;7.022;2023-03-30T03:56:02;13.40;99.90
16655;DHT22;8441;51.344;7.022;2023-03-30T03:58:30;13.50;99.90
16655;DHT22;8441;51.344;7.022;2023-03-30T04:00:58;13.50;99.90
16655;DHT22;8441;51.344;7.022;2023-03-30T04:03:25;13.50;99.90
16655;DHT22;8441;51.344;7.022;2023-03-30T04:05:53;13.50;99.90
16655;DHT22;8441;51.344;7.022;2023-03-30T04:08:20;13.50;99.90
16655;DHT22;8441;51.344;7.022;2023-03-30T04:10:49;13.50;99.90
16655;DHT22;8441;51.344;7.022;2023-03-30T04:13:16;13.50;99.90
16655;DHT22;8441;51.344;7.022;2023-03-30T04:15:43;13.50;99.90
16655;DHT22;8441;51.344;7.022;2023-03-30T04:18:10;13.50;99.90
16655;DHT22;8441;51.344;7.022;2023-03-30T04:20:37;13.40;99.90
16655;DHT22;8441;51.344;7.022;2023-03-30T04:23:05;13.40;99.90
16655;DHT22;8441;51.344;7.022;2023-03-30T04:25:34;13.40;99.90
16655;DHT22;8441;51.344;7.022;2023-03-30T04:28:03;13.40;99.90
16655;DHT22;8441;51.344;7.022;2023-03-30T04:30:30;13.50;99.90
16655;DHT22;8441;51.344;7.022;2023-03-30T04:32:57;13.40;99.90
16655;DHT22;8441;51.344;7.022;2023-03-30T04:35:32;13.40;99.90
16655;DHT22;8441;51.344;7.022;2023-03-30T04:38:01;13.40;99.90
16655;DHT22;8441;51.344;7.022;2023-03-30T04:40:28;13.40;99.90
16655;DHT22;8441;51.344;7.022;2023-03-30T04:42:55;13.40;99.90
16655;DHT22;8441;51.344;7.022;2023-03-30T04:45:28;13.50;99.90
16655;DHT22;8441;51.344;7.022;2023-03-30T04:47:55;13.50;99.90
16655;DHT22;8441;51.344;7.022;2023-03-30T04:50:22;13.50;99.90
16655;DHT22;8441;51.344;7.022;2023-03-30T04:52:49;13.60;99.90
16655;DHT22;8441;51.344;7.022;2023-03-30T04:55:17;13.60;99.90
16655;DHT22;8441;51.344;7.022;2023-03-30T04:57:44;13.60;99.90
16655;DHT22;8441;51.344;7.022;2023-03-30T05:00:12;13.60;99.90
16655;DHT22;8441;51.344;7.022;2023-03-30T05:02:41;13.70;99.90
16655;DHT22;8441;51.344;7.022;2023-03-30T05:05:08;13.70;99.90
16655;DHT22;8441;51.344;7.022;2023-03-30T05:07:35;13.70;99.90
16655;DHT22;8441;51.344;7.022;2023-03-30T05:10:03;13.70;99.90
16655;DHT22;8441;51.344;7.022;2023-03-30T05:12:30;13.70;99.90
16655;DHT22;8441;51.344;7.022;2023-03-30T05:14:57;13.70;99.90
16655;DHT22;8441;51.344;7.022;2023-03-30T05:17:25;13.60;99.90
16655;DHT22;8441;51.344;7.022;2023-03-30T05:19:53;13.60;99.90
16655;DHT22;8441;51.344;7.022;2023-03-30T05:22:21;13.60;99.90
16655;DHT22;8441;51.344;7.022;2023-03-30T05:24:48;13.50;99.90
16655;DHT22;8441;51.344;7.022;2023-03-30T05:27:16;13.50;99.90
16655;DHT22;8441;51.344;7.022;2023-03-30T05:29:44;13.40;99.90
16655;DHT22;8441;51.344;7.022;2023-03-30T05:32:11;13.40;99.90
16655;DHT22;8441;51.344;7.022;2023-03-30T05:34:38;13.40;99.90
16655;DHT22;8441;51.344;7.022;2023-03-30T05:37:06;13.40;99.90
16655;DHT22;8441;51.344;7.022;2023-03-30T05:39:34;13.40;99.90
16655;DHT22;8441;51.344;7.022;2023-03-30T05:42:01;13.40;99.90
16655;DHT22;8441;51.344;7.022;2023-03-30T05:44:28;13.40;99.90
16655;DHT22;8441;51.344;7.022;2023-03-30T05:46:56;13.40;99.90
16655;DHT22;8441;51.344;7.022;2023-03-30T05:49:23;13.40;99.90
16655;DHT22;8441;51.344;7.022;2023-03-30T05:51:50;13.50;99.90
16655;DHT22;8441;51.344;7.022;2023-03-30T05:54:19;13.40;99.90
16655;DHT22;8441;51.344;7.022;2023-03-30T05:56:46;13.40;99.90
16655;DHT22;8441;51.344;7.022;2023-03-30T05:59:14;13.40;99.90
16655;DHT22;8441;51.344;7.022;2023-03-30T06:01:41;13.40;99.90
16655;DHT22;8441;51.344;7.022;2023-03-30T06:04:10;13.40;99.90
16655;DHT22;8441;51.344;7.022;2023-03-30T06:06:38;13.30;99.90
16655;DHT22;8441;51.344;7.022;2023-03-30T06:09:05;13.30;99.90
16655;DHT22;8441;51.344;7.022;2023-03-30T06:11:34;13.30;99.90
16655;DHT22;8441;51.344;7.022;2023-03-30T06:14:01;13.30;99.90
16655;DHT22;8441;51.344;7.022;2023-03-30T06:16:28;13.30;99.90
16655;DHT22;8441;51.344;7.022;2023-03-30T06:18:56;13.30;99.90
16655;DHT22;8441;51.344;7.022;2023-03-30T06:21:23;13.40;99.90
16655;DHT22;8441;51.344;7.022;2023-03-30T06:23:50;13.30;99.90
16655;DHT22;8441;51.344;7.022;2023-03-30T06:26:17;13.40;99.90
16655;DHT22;8441;51.344;7.022;2023-03-30T06:28:46;13.40;99.90
16655;DHT22;8441;51.344;7.022;2023-03-30T06:31:13;13.40;99.90
16655;DHT22;8441;51.344;7.022;2023-03-30T06:33:41;13.40;99.90
16655;DHT22;8441;51.344;7.022;2023-03-30T06:36:10;13.40;99.90
16655;DHT22;8441;51.344;7.022;2023-03-30T06:38:37;13.40;99.90
16655;DHT22;8441;51.344;7.022;2023-03-30T06:41:05;13.40;99.90
16655;DHT22;8441;51.344;7.022;2023-03-30T06:43:37;13.40;99.90
16655;DHT22;8441;51.344;7.022;2023-03-30T06:46:06;13.40;99.90
16655;DHT22;8441;51.344;7.022;2023-03-30T06:48:34;13.50;99.90
16655;DHT22;8441;51.344;7.022;2023-03-30T06:51:01;13.70;99.90
16655;DHT22;8441;51.344;7.022;2023-03-30T06:53:28;13.90;99.90
16655;DHT22;8441;51.344;7.022;2023-03-30T06:55:57;14.00;99.90
16655;DHT22;8441;51.344;7.022;2023-03-30T06:58:26;14.10;99.90
16655;DHT22;8441;51.344;7.022;2023-03-30T07:00:53;14.10;99.90
16655;DHT22;8441;51.344;7.022;2023-03-30T07:03:22;14.00;99.90
16655;DHT22;8441;51.344;7.022;2023-03-30T07:05:51;14.00;99.90
16655;DHT22;8441;51.344;7.022;2023-03-30T07:08:19;14.00;99.90
16655;DHT22;8441;51.344;7.022;2023-03-30T07:10:47;14.00;99.90
16655;DHT22;8441;51.344;7.022;2023-03-30T07:13:14;13.90;99.90
16655;DHT22;8441;51.344;7.022;2023-03-30T07:15:42;13.90;99.90
16655;DHT22;8441;51.344;7.022;2023-03-30T07:18:09;13.90;99.90
16655;DHT22;8441;51.344;7.022;2023-03-30T07:20:38;13.90;99.90
16655;DHT22;8441;51.344;7.022;2023-03-30T07:23:05;13.90;99.90
16655;DHT22;8441;51.344;7.022;2023-03-30T07:25:32;13.90;99.90
16655;DHT22;8441;51.344;7.022;2023-03-30T07:27:59;13.80;99.90
16655;DHT22;8441;51.344;7.022;2023-03-30T07:30:27;13.80;99.90
16655;DHT22;8441;51.344;7.022;2023-03-30T07:32:54;13.70;99.90
16655;DHT22;8441;51.344;7.022;2023-03-30T07:35:21;13.80;99.90
16655;DHT22;8441;51.344;7.022;2023-03-30T07:37:50;13.70;99.90
16655;DHT22;8441;51.344;7.022;2023-03-30T07:40:17;13.70;99.90
16655;DHT22;8441;51.344;7.022;2023-03-30T07:42:44;13.60;99.90
16655;DHT22;8441;51.344;7.022;2023-03-30T07:45:12;13.60;99.90
16655;DHT22;8441;51.344;7.022;2023-03-30T07:47:40;13.60;99.90
16655;DHT22;8441;51.344;7.022;2023-03-30T07:50:08;13.60;99.90
16655;DHT22;8441;51.344;7.022;2023-03-30T07:52:35;13.70;99.90
16655;DHT22;8441;51.344;7.022;2023-03-30T07:55:04;13.80;99.90
16655;DHT22;8441;51.344;7.022;2023-03-30T07:57:32;14.00;99.90
16655;DHT22;8441;51.344;7.022;2023-03-30T08:00:08;14.20;99.90
16655;DHT22;8441;51.344;7.022;2023-03-30T08:02:38;14.20;99.90
16655;DHT22;8441;51.344;7.022;2023-03-30T08:05:06;14.10;99.90
16655;DHT22;8441;51.344;7.022;2023-03-30T08:07:34;14.10;99.90
16655;DHT22;8441;51.344;7.022;2023-03-30T08:10:02;14.00;99.90
16655;DHT22;8441;51.344;7.022;2023-03-30T08:12:31;13.90;99.90
16655;DHT22;8441;51.344;7.022;2023-03-30T08:14:58;13.80;99.90
16655;DHT22;8441;51.344;7.022;2023-03-30T08:17:25;13.80;99.90
16655;DHT22;8441;51.344;7.022;2023-03-30T08:19:53;13.80;99.90
16655;DHT22;8441;51.344;7.022;2023-03-30T08:22:21;13.80;99.90
16655;DHT22;8441;51.344;7.022;2023-03-30T08:24:48;13.70;99.90
16655;DHT22;8441;51.344;7.022;2023-03-30T08:27:15;13.70;99.90
16655;DHT22;8441;51.344;7.022;2023-03-30T08:29:44;13.80;99.90
16655;DHT22;8441;51.344;7.022;2023-03-30T08:32:11;13.70;99.90
16655;DHT22;8441;51.344;7.022;2023-03-30T08:34:38;13.60;99.90
16655;DHT22;8441;51.344;7.022;2023-03-30T08:37:05;13.60;99.90
16655;DHT22;8441;51.344;7.022;2023-03-30T08:39:32;13.70;99.90
16655;DHT22;8441;51.344;7.022;2023-03-30T08:42:08;13.70;99.90
16655;DHT22;8441;51.344;7.022;2023-03-30T08:44:38;13.80;99.90
16655;DHT22;8441;51.344;7.022;2023-03-30T08:47:12;13.90;99.90
16655;DHT22;8441;51.344;7.022;2023-03-30T08:49:43;14.10;99.90
16655;DHT22;8441;51.344;7.022;2023-03-30T08:52:17;14.10;99.90
16655;DHT22;8441;51.344;7.022;2023-03-30T08:54:46;14.10;99.90
16655;DHT22;8441;51.344;7.022;2023-03-30T08:57:21;14.00;99.90
16655;DHT22;8441;51.344;7.022;2023-03-30T09:00:02;14.20;99.90
16655;DHT22;8441;51.344;7.022;2023-03-30T09:02:40;14.50;99.90
16655;DHT22;8441;51.344;7.022;2023-03-30T09:05:15;14.70;99.90
16655;DHT22;8441;51.344;7.022;2023-03-30T09:07:51;14.90;99.90
16655;DHT22;8441;51.344;7.022;2023-03-30T09:10:22;14.90;99.90
16655;DHT22;8441;51.344;7.022;2023-03-30T09:12:54;15.10;99.90
16655;DHT22;8441;51.344;7.022;2023-03-30T09:15:27;15.20;99.90
16655;DHT22;8441;51.344;7.022;2023-03-30T09:18:00;15.10;99.90
16655;DHT22;8441;51.344;7.022;2023-03-30T09:20:29;15.10;99.90
16655;DHT22;8441;51.344;7.022;2023-03-30T09:22:59;15.00;99.90
16655;DHT22;8441;51.344;7.022;2023-03-30T09:25:31;14.80;99.90
16655;DHT22;8441;51.344;7.022;2023-03-30T09:28:05;14.80;99.90
16655;DHT22;8441;51.344;7.022;2023-03-30T09:30:39;14.80;99.90
16655;DHT22;8441;51.344;7.022;2023-03-30T09:33:28;14.80;99.90
16655;DHT22;8441;51.344;7.022;2023-03-30T09:36:09;14.70;99.90
16655;DHT22;8441;51.344;7.022;2023-03-30T09:38:39;14.60;99.90
16655;DHT22;8441;51.344;7.022;2023-03-30T09:41:20;14.10;99.90
16655;DHT22;8441;51.344;7.022;2023-03-30T09:43:50;13.40;99.90
16655;DHT22;8441;51.344;7.022;2023-03-30T09:46:18;13.00;99.90
16655;DHT22;8441;51.344;7.022;2023-03-30T09:48:47;12.60;99.90
16655;DHT22;8441;51.344;7.022;2023-03-30T09:51:18;12.30;99.90
16655;DHT22;8441;51.344;7.022;2023-03-30T09:53:46;12.30;99.90
16655;DHT22;8441;51.344;7.022;2023-03-30T09:56:23;12.30;99.90
16655;DHT22;8441;51.344;7.022;2023-03-30T09:58:51;12.30;99.90
16655;DHT22;8441;51.344;7.022;2023-03-30T10:01:19;12.10;99.90
16655;DHT22;8441;51.344;7.022;2023-03-30T10:04:10;12.00;99.90
16655;DHT22;8441;51.344;7.022;2023-03-30T10:06:44;12.00;99.90
16655;DHT22;8441;51.344;7.022;2023-03-30T10:09:13;12.00;99.90
16655;DHT22;8441;51.344;7.022;2023-03-30T10:11:43;12.00;99.90
16655;DHT22;8441;51.344;7.022;2023-03-30T10:14:28;12.00;99.90
16655;DHT22;8441;51.344;7.022;2023-03-30T10:16:57;12.10;99.90
16655;DHT22;8441;51.344;7.022;2023-03-30T10:19:26;12.00;99.90
16655;DHT22;8441;51.344;7.022;2023-03-30T10:21:55;12.00;99.90
16655;DHT22;8441;51.344;7.022;2023-03-30T10:24:26;12.00;99.90
16655;DHT22;8441;51.344;7.022;2023-03-30T10:26:56;12.10;99.90
16655;DHT22;8441;51.344;7.022;2023-03-30T10:29:27;12.20;99.90
16655;DHT22;8441;51.344;7.022;2023-03-30T10:31:58;12.30;99.90
16655;DHT22;8441;51.344;7.022;2023-03-30T10:34:35;12.40;99.90
16655;DHT22;8441;51.344;7.022;2023-03-30T10:37:09;12.50;99.90
16655;DHT22;8441;51.344;7.022;2023-03-30T10:39:39;12.70;99.90
16655;DHT22;8441;51.344;7.022;2023-03-30T10:42:08;12.80;99.90
16655;DHT22;8441;51.344;7.022;2023-03-30T10:44:44;12.90;99.90
16655;DHT22;8441;51.344;7.022;2023-03-30T10:47:43;13.00;99.90
16655;DHT22;8441;51.344;7.022;2023-03-30T10:50:23;13.20;99.90
16655;DHT22;8441;51.344;7.022;2023-03-30T10:53:01;13.40;99.90
16655;DHT22;8441;51.344;7.022;2023-03-30T10:55:38;13.60;99.90
16655;DHT22;8441;51.344;7.022;2023-03-30T10:58:19;13.80;99.90
16655;DHT22;8441;51.344;7.022;2023-03-30T11:00:59;14.00;99.90
16655;DHT22;8441;51.344;7.022;2023-03-30T11:03:31;14.00;99.90
16655;DHT22;8441;51.344;7.022;2023-03-30T11:06:07;13.90;99.90
16655;DHT22;8441;51.344;7.022;2023-03-30T11:08:38;13.60;99.90
16655;DHT22;8441;51.344;7.022;2023-03-30T11:11:12;13.60;99.90
16655;DHT22;8441;51.344;7.022;2023-03-30T11:13:42;13.50;99.90
16655;DHT22;8441;51.344;7.022;2023-03-30T11:16:14;13.50;99.90
16655;DHT22;8441;51.344;7.022;2023-03-30T11:18:48;13.30;99.90
16655;DHT22;8441;51.344;7.022;2023-03-30T11:21:25;13.50;99.90
16655;DHT22;8441;51.344;7.022;2023-03-30T11:23:57;13.80;99.90
16655;DHT22;8441;51.344;7.022;2023-03-30T11:26:32;13.90;99.90
16655;DHT22;8441;51.344;7.022;2023-03-30T11:29:24;14.00;99.90
16655;DHT22;8441;51.344;7.022;2023-03-30T11:31:58;14.20;99.90
16655;DHT22;8441;51.344;7.022;2023-03-30T11:34:33;14.40;99.90
16655;DHT22;8441;51.344;7.022;2023-03-30T11:37:10;14.40;99.90
16655;DHT22;8441;51.344;7.022;2023-03-30T11:39:41;14.50;99.90
16655;DHT22;8441;51.344;7.022;2023-03-30T11:42:14;14.40;99.90
16655;DHT22;8441;51.344;7.022;2023-03-30T11:44:43;14.40;99.90
16655;DHT22;8441;51.344;7.022;2023-03-30T11:47:28;14.30;99.90
16655;DHT22;8441;51.344;7.022;2023-03-30T11:50:17;14.40;99.90
16655;DHT22;8441;51.344;7.022;2023-03-30T11:52:57;14.40;99.90
16655;DHT22;8441;51.344;7.022;2023-03-30T11:55:33;14.50;99.90
16655;DHT22;8441;51.344;7.022;2023-03-30T11:58:14;14.60;99.90
16655;DHT22;8441;51.344;7.022;2023-03-30T12:00:50;14.80;99.90
16655;DHT22;8441;51.344;7.022;2023-03-30T12:03:33;14.80;99.90
16655;DHT22;8441;51.344;7.022;2023-03-30T12:06:21;14.80;99.90
16655;DHT22;8441;51.344;7.022;2023-03-30T12:09:05;15.00;99.90
16655;DHT22;8441;51.344;7.022;2023-03-30T12:11:40;15.00;99.90
16655;DHT22;8441;51.344;7.022;2023-03-30T12:14:25;14.80;99.90
16655;DHT22;8441;51.344;7.022;2023-03-30T12:16:58;14.50;99.90
16655;DHT22;8441;51.344;7.022;2023-03-30T12:19:31;14.20;99.90
16655;DHT22;8441;51.344;7.022;2023-03-30T12:22:04;14.10;99.90
16655;DHT22;8441;51.344;7.022;2023-03-30T12:24:37;13.90;99.90
16655;DHT22;8441;51.344;7.022;2023-03-30T12:27:06;13.70;99.90
16655;DHT22;8441;51.344;7.022;2023-03-30T12:29:45;13.60;99.90
16655;DHT22;8441;51.344;7.022;2023-03-30T12:32:21;13.20;99.90
16655;DHT22;8441;51.344;7.022;2023-03-30T12:34:49;12.90;99.90
16655;DHT22;8441;51.344;7.022;2023-03-30T12:37:18;12.30;99.90
16655;DHT22;8441;51.344;7.022;2023-03-30T12:39:53;11.60;99.90
16655;DHT22;8441;51.344;7.022;2023-03-30T12:42:25;11.20;99.90
16655;DHT22;8441;51.344;7.022;2023-03-30T12:45:17;11.00;99.90
16655;DHT22;8441;51.344;7.022;2023-03-30T12:48:00;11.10;99.90
16655;DHT22;8441;51.344;7.022;2023-03-30T12:50:36;11.10;99.90
16655;DHT22;8441;51.344;7.022;2023-03-30T12:53:27;11.20;99.90
16655;DHT22;8441;51.344;7.022;2023-03-30T12:56:03;11.30;99.90
16655;DHT22;8441;51.344;7.022;2023-03-30T12:58:56;11.40;99.90
16655;DHT22;8441;51.344;7.022;2023-03-30T13:01:38;11.50;99.90
16655;DHT22;8441;51.344;7.022;2023-03-30T13:04:11;11.60;99.90
16655;DHT22;8441;51.344;7.022;2023-03-30T13:06:47;11.60;99.90
16655;DHT22;8441;51.344;7.022;2023-03-30T13:09:31;11.60;99.90
16655;DHT22;8441;51.344;7.022;2023-03-30T13:12:31;11.70;99.90
16655;DHT22;8441;51.344;7.022;2023-03-30T13:17:56;11.80;99.90
16655;DHT22;8441;51.344;7.022;2023-03-30T13:20:29;12.20;99.90
16655;DHT22;8441;51.344;7.022;2023-03-30T13:23:05;12.80;99.90
16655;DHT22;8441;51.344;7.022;2023-03-30T13:25:59;13.20;99.90
16655;DHT22;8441;51.344;7.022;2023-03-30T13:28:56;13.40;99.90
16655;DHT22;8441;51.344;7.022;2023-03-30T13:31:52;13.50;99.90
16655;DHT22;8441;51.344;7.022;2023-03-30T13:34:42;13.60;99.90
16655;DHT22;8441;51.344;7.022;2023-03-30T13:37:17;13.70;99.90
16655;DHT22;8441;51.344;7.022;2023-03-30T13:39:51;13.80;99.90
16655;DHT22;8441;51.344;7.022;2023-03-30T13:42:31;13.90;99.90
16655;DHT22;8441;51.344;7.022;2023-03-30T13:45:08;14.00;99.90
16655;DHT22;8441;51.344;7.022;2023-03-30T13:47:55;14.00;99.90
16655;DHT22;8441;51.344;7.022;2023-03-30T13:50:26;14.00;99.90
16655;DHT22;8441;51.344;7.022;2023-03-30T13:52:58;14.00;99.90
16655;DHT22;8441;51.344;7.022;2023-03-30T13:55:28;14.00;99.90
16655;DHT22;8441;51.344;7.022;2023-03-30T13:58:00;14.20;99.90
16655;DHT22;8441;51.344;7.022;2023-03-30T14:00:34;14.50;99.90
16655;DHT22;8441;51.344;7.022;2023-03-30T14:03:29;14.80;99.90
16655;DHT22;8441;51.344;7.022;2023-03-30T14:06:04;15.00;99.90
16655;DHT22;8441;51.344;7.022;2023-03-30T14:08:35;15.00;99.90
16655;DHT22;8441;51.344;7.022;2023-03-30T14:11:12;15.00;99.90
16655;DHT22;8441;51.344;7.022;2023-03-30T14:13:41;14.80;99.90
16655;DHT22;8441;51.344;7.022;2023-03-30T14:16:16;14.80;99.90
16655;DHT22;8441;51.344;7.022;2023-03-30T14:18:44;14.60;99.90
16655;DHT22;8441;51.344;7.022;2023-03-30T14:21:15;14.60;99.90
16655;DHT22;8441;51.344;7.022;2023-03-30T14:23:46;14.70;99.90
16655;DHT22;8441;51.344;7.022;2023-03-30T14:26:16;14.70;99.90
16655;DHT22;8441;51.344;7.022;2023-03-30T14:28:44;14.70;99.90
16655;DHT22;8441;51.344;7.022;2023-03-30T14:31:14;14.70;99.90
16655;DHT22;8441;51.344;7.022;2023-03-30T14:33:42;14.90;99.90
16655;DHT22;8441;51.344;7.022;2023-03-30T14:36:10;14.90;99.90
16655;DHT22;8441;51.344;7.022;2023-03-30T14:38:42;15.00;99.90
16655;DHT22;8441;51.344;7.022;2023-03-30T14:41:13;15.00;99.90
16655;DHT22;8441;51.344;7.022;2023-03-30T14:43:46;14.90;99.90
16655;DHT22;8441;51.344;7.022;2023-03-30T14:46:17;14.90;99.90
16655;DHT22;8441;51.344;7.022;2023-03-30T14:48:46;14.90;99.90
16655;DHT22;8441;51.344;7.022;2023-03-30T14:51:23;14.60;99.90
16655;DHT22;8441;51.344;7.022;2023-03-30T14:53:51;14.70;99.90
16655;DHT22;8441;51.344;7.022;2023-03-30T14:56:19;15.00;99.90
16655;DHT22;8441;51.344;7.022;2023-03-30T14:58:48;15.10;99.90
16655;DHT22;8441;51.344;7.022;2023-03-30T15:01:24;15.40;99.90
16655;DHT22;8441;51.344;7.022;2023-03-30T15:03:56;15.60;99.90
16655;DHT22;8441;51.344;7.022;2023-03-30T15:06:25;15.70;99.90
16655;DHT22;8441;51.344;7.022;2023-03-30T15:08:52;15.70;99.90
16655;DHT22;8441;51.344;7.022;2023-03-30T15:11:26;15.60;99.90
16655;DHT22;8441;51.344;7.022;2023-03-30T15:13:55;15.40;99.90
16655;DHT22;8441;51.344;7.022;2023-03-30T15:16:26;15.30;99.90
16655;DHT22;8441;51.344;7.022;2023-03-30T15:18:58;15.10;99.90
16655;DHT22;8441;51.344;7.022;2023-03-30T15:21:28;14.90;99.90
16655;DHT22;8441;51.344;7.022;2023-03-30T15:23:56;14.80;99.90
16655;DHT22;8441;51.344;7.022;2023-03-30T15:26:25;14.80;99.90
16655;DHT22;8441;51.344;7.022;2023-03-30T15:28:55;14.90;99.90
16655;DHT22;8441;51.344;7.022;2023-03-30T15:31:25;14.80;99.90
16655;DHT22;8441;51.344;7.022;2023-03-30T15:33:54;14.80;99.90
16655;DHT22;8441;51.344;7.022;2023-03-30T15:36:23;14.70;99.90
16655;DHT22;8441;51.344;7.022;2023-03-30T15:38:52;14.50;99.90
16655;DHT22;8441;51.344;7.022;2023-03-30T15:41:21;14.30;99.90
16655;DHT22;8441;51.344;7.022;2023-03-30T15:43:55;14.00;99.90
16655;DHT22;8441;51.344;7.022;2023-03-30T15:46:25;13.70;99.90
16655;DHT22;8441;51.344;7.022;2023-03-30T15:48:55;13.50;99.90
16655;DHT22;8441;51.344;7.022;2023-03-30T15:51:25;13.50;99.90
16655;DHT22;8441;51.344;7.022;2023-03-30T15:53:57;13.50;99.90
16655;DHT22;8441;51.344;7.022;2023-03-30T15:56:29;13.50;99.90
16655;DHT22;8441;51.344;7.022;2023-03-30T15:58:59;13.50;99.90
16655;DHT22;8441;51.344;7.022;2023-03-30T16:01:42;13.40;99.90
16655;DHT22;8441;51.344;7.022;2023-03-30T16:04:12;13.40;99.90
16655;DHT22;8441;51.344;7.022;2023-03-30T16:06:40;13.30;99.90
16655;DHT22;8441;51.344;7.022;2023-03-30T16:09:08;13.40;99.90
16655;DHT22;8441;51.344;7.022;2023-03-30T16:11:35;13.50;99.90
16655;DHT22;8441;51.344;7.022;2023-03-30T16:14:03;13.50;99.90
16655;DHT22;8441;51.344;7.022;2023-03-30T16:16:33;13.50;99.90
16655;DHT22;8441;51.344;7.022;2023-03-30T16:19:00;13.40;99.90
16655;DHT22;8441;51.344;7.022;2023-03-30T16:21:27;13.60;99.90
16655;DHT22;8441;51.344;7.022;2023-03-30T16:23:54;13.60;99.90
16655;DHT22;8441;51.344;7.022;2023-03-30T16:26:21;13.60;99.90
16655;DHT22;8441;51.344;7.022;2023-03-30T16:28:49;13.60;99.90
16655;DHT22;8441;51.344;7.022;2023-03-30T16:31:19;13.70;99.90